Aérodrome :
LOGIN :

S'inscrire | Disclaimer

   EN    FR    IT 

 










Légende :    VFR   VFR Marginal   IFR   IFR Intensif   IFR Très Intensif
Visi : 
Plafond : 
>= 8 km
>= 3000ft
5 à 8 km
1000 à 3000 ft
1500m à 5 km
500 à 1000 ft
800 à 1500m
200 à 500 ft
< 800m
< 200 ft
Symboles :   Orages  Brouillard  Fortes neiges  Fortes précipitations  Vent > 20 kt
SIGMETs :   Divers  Orages  Givrage  Turbulence  Onde Orograph.  Cendres Volcan.







- Altitude de l'aérodrome : 436 ft
- Code IATA : BTS


LZIB - Bratislava

DERNIER METAR :
  • 230430Z 03004KT 9999 FEW018 M07/M08 Q1004 R88/CLRD//

METARs EXPIRÉS :
  • 230400Z 03004KT CAVOK M07/M09 Q1004 R88/CLRD//
  • 230330Z 05005KT CAVOK M08/M09 Q1004 R88/CLRD//
  • 230300Z 04004KT CAVOK M07/M09 Q1004 R88/CLRD//
  • 230230Z 36002KT 9000 NSC M07/M09 Q1004 R88/CLRD//
  • 230200Z 02003KT 9000 NSC M08/M09 Q1005 R88/CLRD//

TAF AMD TAF LZIB
Valide du 23 à 02h jusqu'au 24 à 00h UTC


230207Z 2302/2400 02004KT CAVOK
BECMG 2306/2308 06009KT 9999 SCT020 OVC033
TEMPO 2308/2316 5000 -SN BR BKN008 OVC016
Pas de NOTAMs connus pour ce terrain.



MET'MAP, la Météo Aéronautique d'un coup d'oeil ! - Copyright ORBIFLY Décembre 2007 - Disclaimer

ORBIFLY MET'MAP TEAM :

Programmation & Développement : Alexandra Zaïnal
Conception & Développement : Baudouin d'Aumeries
Co-Programmation & Développement : Marc-Olivier Méhu
Soutien technique & logistique : Manuel Goepfert

Contact : metmap@orbifly.com




SOURCES & CREDITS :

   NOAA